Astoria, NY (11102)

10:17 AM EDT on May 06, 2015 (GMT -0400)
Central Park | | Change Station
CLOSE
Current Station
Airport
Location: Central Park,
Elevation: 154 ft
Nearby Weather Stations

Elev 154 ft 40.78 °N, 73.97 °W | Updated 26 minutes ago

Overcast
Overcast
66 °F
Feels Like 66 °F
N
8
Wind Variable Wind from ENE

Today
High -- | Low -- °F
--% Chance of Precip.
Yesterday
High -- | Low -- °F
Precip. -- in
5:48 AM 7:56 PM
Waning Gibbous, 94% visible
Pressure 30.30 in
Visibility 10.0 miles
Clouds Overcast 7000 ft
Dew Point 39 °F
Humidity 37%
Rainfall 0.00 in
Snow Depth Not available.
UV 2 out of 12
Pollen 3.80 out of 12
Air Quality Not available.
Flu Activity Widespread
METAR KNYC 061351Z AUTO 06007KT 10SM OVC070 19/04 A3033 RMK AO2 RAB06E15 SLP261 P0000 T01890039 $

More Conditions Fewer Conditions

Pressure 30.30 in
Visibility 10.0 miles
Clouds Overcast 7000 ft
Dew Point 39 °F
Humidity 37%
Rainfall 0.00 in
Snow Depth Not available.
UV 2 out of 12
Pollen 3.80 out of 12
Air Quality Not available.
Flu Activity Widespread
METAR KNYC 061351Z AUTO 06007KT 10SM OVC070 19/04 A3033 RMK AO2 RAB06E15 SLP261 P0000 T01890039 $

More Conditions Fewer Conditions

10-Day Weather Forecast

Almanac

Astronomy

May. 06, 2015 Rise Set
Actual Time
Civil Twilight
Nautical Twilight
Astronomical Twilight
Moon
Length of Visible Light
Length of Day
Tomorrow will be .
, % of the Moon is Illuminated

Today's Extremes

State Highs State Lows

Community

WunderPhotos

Upload Photos

1,818,914 photos uploaded!

WunderBlogs® & News

Nearby

Air Quality

  Air Quality AQ Index Pollutant
Not available.

Snow Depth

Station Depth Elevation

Earthquake Activity

City Distance Mag. Time & Date
Minimum magnitude displayed is 2.5.

Coastal Water Temperatures

Place Temperature

Stations

Nearby Weather Stations

Station Location Temp. Windchill Dew Point Humidity Wind Precip. Elev Updated Type